createdAt,value
2018-12-14T00:02:03.591Z,1.30
2018-12-14T00:04:49.135Z,1.30
2018-12-14T00:07:22.571Z,1.30
2018-12-14T00:09:56.028Z,1.30
2018-12-14T00:12:29.455Z,1.30
2018-12-14T00:15:03.011Z,1.30
2018-12-14T00:17:36.431Z,1.30
2018-12-14T00:20:09.871Z,1.30
2018-12-14T00:22:43.298Z,1.30
2018-12-14T00:25:28.899Z,1.30
2018-12-14T00:28:03.243Z,1.30
2018-12-14T00:30:36.703Z,1.40
2018-12-14T00:33:10.778Z,1.40
2018-12-14T00:35:44.510Z,1.40
2018-12-14T00:38:19.736Z,1.40
2018-12-14T00:40:53.187Z,1.40
2018-12-14T00:43:26.619Z,1.40
2018-12-14T00:48:57.702Z,1.40
2018-12-14T00:51:31.123Z,1.40
2018-12-14T00:54:04.673Z,1.40
2018-12-14T00:56:38.094Z,1.40
2018-12-14T00:59:11.539Z,1.40
2018-12-14T01:01:44.953Z,1.40
2018-12-14T01:04:18.397Z,1.40
2018-12-14T01:06:51.819Z,1.40
2018-12-14T01:09:25.270Z,1.40
2018-12-14T01:11:58.700Z,1.40
2018-12-14T01:14:32.155Z,1.30
2018-12-14T01:17:05.582Z,1.40
2018-12-14T01:19:39.040Z,1.40
2018-12-14T01:22:12.463Z,1.40
2018-12-14T01:24:45.925Z,1.40
2018-12-14T01:27:19.354Z,1.30
2018-12-14T01:29:52.800Z,1.30
2018-12-14T01:32:26.220Z,1.30
2018-12-14T01:35:17.720Z,1.30
2018-12-14T01:37:51.145Z,1.30
2018-12-14T01:40:24.601Z,1.30
2018-12-14T01:42:58.042Z,1.30
2018-12-14T01:45:31.508Z,1.30
2018-12-14T01:48:05.018Z,1.30
2018-12-14T01:50:38.541Z,1.30
2018-12-14T01:53:12.646Z,1.30
2018-12-14T01:55:46.130Z,1.40
2018-12-14T01:58:19.561Z,1.30
2018-12-14T02:00:53.254Z,1.30
2018-12-14T02:03:26.672Z,1.30
2018-12-14T02:06:00.124Z,1.30
2018-12-14T02:08:33.565Z,1.30
2018-12-14T02:11:07.008Z,1.30
2018-12-14T02:13:40.435Z,1.30
2018-12-14T02:16:13.891Z,1.30
2018-12-14T02:18:47.318Z,1.30
2018-12-14T02:21:20.773Z,1.30
2018-12-14T02:23:54.195Z,1.30
2018-12-14T02:26:29.196Z,1.30
2018-12-14T02:29:02.619Z,1.20
2018-12-14T02:31:36.071Z,1.20
2018-12-14T02:34:09.496Z,1.20
2018-12-14T02:36:42.982Z,1.20
2018-12-14T02:39:16.639Z,1.20
2018-12-14T02:41:50.096Z,1.30
2018-12-14T02:44:23.565Z,1.30
2018-12-14T02:46:57.036Z,1.30
2018-12-14T02:49:30.473Z,1.20
2018-12-14T02:52:03.916Z,1.20
2018-12-14T02:54:37.336Z,1.20
2018-12-14T02:57:10.786Z,1.20
2018-12-14T02:59:44.225Z,1.20
2018-12-14T03:02:17.688Z,1.20
2018-12-14T03:04:51.116Z,1.20
2018-12-14T03:07:24.576Z,1.20
2018-12-14T03:09:58.000Z,1.20
2018-12-14T03:12:31.468Z,1.30
2018-12-14T03:15:05.368Z,1.30
2018-12-14T03:17:38.820Z,1.30
2018-12-14T03:20:12.475Z,1.30
2018-12-14T03:22:45.928Z,1.30
2018-12-14T03:25:19.360Z,1.30
2018-12-14T03:27:52.821Z,1.30
2018-12-14T03:30:26.293Z,1.20
2018-12-14T03:32:59.973Z,1.30
2018-12-14T03:35:33.413Z,1.20
2018-12-14T03:38:06.869Z,1.20
2018-12-14T03:40:40.296Z,1.20
2018-12-14T03:43:13.864Z,1.20
2018-12-14T03:45:47.716Z,1.20
2018-12-14T03:48:21.160Z,1.10
2018-12-14T03:50:54.592Z,1.10
2018-12-14T03:53:28.048Z,1.10
2018-12-14T03:56:01.471Z,1.10
2018-12-14T03:58:34.916Z,1.10
2018-12-14T04:01:08.345Z,1.10
2018-12-14T04:03:41.792Z,1.10
2018-12-14T04:06:20.558Z,1.10
2018-12-14T04:08:54.009Z,1.10
2018-12-14T04:11:27.437Z,1.20
2018-12-14T04:14:00.893Z,1.20
2018-12-14T04:16:34.780Z,1.20
2018-12-14T04:19:08.226Z,1.20
2018-12-14T04:21:41.677Z,1.10
2018-12-14T04:24:15.148Z,1.10
2018-12-14T04:26:48.568Z,1.10
2018-12-14T04:29:22.029Z,1.20
2018-12-14T04:31:55.457Z,1.20
2018-12-14T04:34:34.665Z,1.10
2018-12-14T04:37:08.168Z,1.10
2018-12-14T04:39:41.621Z,1.10
2018-12-14T04:42:15.053Z,1.20
2018-12-14T04:44:48.525Z,1.10
2018-12-14T04:47:22.150Z,1.10
2018-12-14T04:49:55.689Z,1.10
2018-12-14T04:52:29.117Z,1.10
2018-12-14T04:55:02.571Z,1.10
2018-12-14T04:57:36.015Z,1.10
2018-12-14T05:00:09.717Z,1.10
2018-12-14T05:02:43.152Z,1.20
2018-12-14T05:07:50.664Z,1.10
2018-12-14T05:10:24.116Z,1.20
2018-12-14T05:12:57.564Z,1.20
2018-12-14T05:15:31.048Z,1.20
2018-12-14T05:18:04.811Z,1.20
2018-12-14T05:20:38.299Z,1.20
2018-12-14T05:23:11.995Z,1.30
2018-12-14T05:25:45.459Z,1.30
2018-12-14T05:28:18.974Z,1.30
2018-12-14T05:30:52.436Z,1.30
2018-12-14T05:33:25.991Z,1.30
2018-12-14T05:35:59.447Z,1.30
2018-12-14T05:38:32.875Z,1.30
2018-12-14T05:41:06.967Z,1.30
2018-12-14T05:43:40.390Z,1.30
2018-12-14T05:46:13.839Z,1.30
2018-12-14T05:51:52.011Z,1.30
2018-12-14T05:54:25.561Z,1.30
2018-12-14T05:56:59.303Z,1.30
2018-12-14T05:59:32.727Z,1.30
2018-12-14T06:02:06.179Z,1.30
2018-12-14T06:04:39.603Z,1.30
2018-12-14T06:07:13.053Z,1.30
2018-12-14T06:09:46.475Z,1.30
2018-12-14T06:12:20.078Z,1.30
2018-12-14T06:14:53.623Z,1.30
2018-12-14T06:17:27.067Z,1.30
2018-12-14T06:20:00.627Z,1.30
2018-12-14T06:22:35.626Z,1.30
2018-12-14T06:28:13.426Z,1.30
2018-12-14T06:30:47.923Z,1.30
2018-12-14T06:33:21.427Z,1.30
2018-12-14T06:35:56.672Z,1.30
2018-12-14T06:38:30.158Z,1.30
2018-12-14T06:41:07.426Z,1.30
2018-12-14T06:43:40.918Z,1.30
2018-12-14T06:46:16.701Z,1.30
2018-12-14T06:48:50.230Z,1.30
2018-12-14T06:51:25.942Z,1.40
2018-12-14T06:53:59.434Z,1.30
2018-12-14T06:56:34.174Z,1.40
2018-12-14T06:59:07.773Z,1.40
2018-12-14T07:01:44.959Z,1.40
2018-12-14T07:04:18.446Z,1.50
2018-12-14T07:06:55.741Z,1.40
2018-12-14T07:09:29.241Z,1.50
2018-12-14T07:12:03.990Z,1.50
2018-12-14T07:14:37.493Z,1.50
2018-12-14T07:17:10.964Z,1.50
2018-12-14T07:26:09.721Z,1.40
2018-12-14T07:28:44.181Z,1.40
2018-12-14T07:31:17.634Z,1.50
2018-12-14T07:33:51.055Z,1.50
2018-12-14T07:39:26.017Z,1.40
2018-12-14T07:41:59.501Z,1.50
2018-12-14T07:53:52.549Z,1.50
2018-12-14T07:56:37.694Z,1.50
2018-12-14T07:59:11.573Z,1.50
2018-12-14T08:01:47.023Z,1.50
2018-12-14T08:04:20.520Z,1.50
2018-12-14T08:06:55.844Z,1.50
2018-12-14T08:09:29.455Z,1.60
2018-12-14T08:12:03.885Z,1.60
2018-12-14T08:14:37.369Z,1.60
2018-12-14T08:17:10.816Z,1.50
2018-12-14T08:20:00.669Z,1.50
2018-12-14T08:22:34.096Z,1.50
2018-12-14T08:25:23.544Z,1.50
2018-12-14T08:27:56.962Z,1.50
2018-12-14T08:30:30.492Z,1.50
2018-12-14T08:33:04.001Z,1.50
2018-12-14T08:35:37.459Z,1.60
2018-12-14T08:38:10.897Z,1.50
2018-12-14T08:40:44.354Z,1.60
2018-12-14T08:43:17.768Z,1.60
2018-12-14T08:48:48.640Z,1.60
2018-12-14T08:51:22.108Z,1.60
2018-12-14T08:53:58.136Z,1.60
2018-12-14T08:59:29.534Z,1.60
2018-12-14T09:02:02.971Z,1.60
2018-12-14T09:04:40.277Z,1.60
2018-12-14T09:07:13.704Z,1.70
2018-12-14T09:09:47.160Z,1.70
2018-12-14T09:12:20.594Z,1.60
2018-12-14T09:15:15.988Z,1.70
2018-12-14T09:17:49.652Z,1.70
2018-12-14T09:20:23.104Z,1.70
2018-12-14T09:22:56.619Z,1.70
2018-12-14T09:31:40.443Z,1.70
2018-12-14T09:34:13.862Z,1.70
2018-12-14T09:36:47.928Z,1.80
2018-12-14T09:39:21.361Z,1.80
2018-12-14T09:41:54.835Z,1.80
2018-12-14T09:44:28.259Z,1.80
2018-12-14T09:47:01.717Z,1.80
2018-12-14T09:49:35.136Z,1.90
2018-12-14T09:52:08.597Z,1.90
2018-12-14T09:54:42.028Z,1.90
2018-12-14T09:57:15.492Z,1.80
2018-12-14T09:59:49.767Z,1.70
2018-12-14T10:02:23.223Z,1.70
2018-12-14T10:07:46.905Z,1.70
2018-12-14T10:10:20.786Z,1.70
2018-12-14T10:12:54.240Z,1.70
2018-12-14T10:15:28.996Z,1.70
2018-12-14T10:18:02.445Z,1.60
2018-12-14T10:20:35.869Z,1.60
2018-12-14T10:23:09.340Z,1.60
2018-12-14T10:28:44.223Z,1.60
2018-12-14T10:31:17.647Z,1.60
2018-12-14T10:33:51.095Z,1.60
2018-12-14T10:39:29.767Z,1.70
2018-12-14T10:42:03.198Z,1.70
2018-12-14T10:48:06.340Z,1.80
2018-12-14T10:50:39.983Z,1.80
2018-12-14T10:53:13.688Z,1.80
2018-12-14T11:17:43.579Z,1.90
2018-12-14T11:20:17.007Z,1.90
2018-12-14T11:22:50.468Z,1.90
2018-12-14T11:25:23.901Z,1.90
2018-12-14T11:27:59.093Z,1.90
2018-12-14T11:30:32.531Z,2.00
2018-12-14T11:33:05.986Z,2.00
2018-12-14T11:38:41.864Z,1.90
2018-12-14T11:41:18.411Z,1.90
2018-12-14T11:43:50.754Z,1.90
2018-12-14T11:46:29.841Z,2.00
2018-12-14T11:49:03.800Z,2.00
2018-12-14T11:51:37.234Z,2.00
2018-12-14T11:56:45.607Z,2.10
2018-12-14T11:59:19.166Z,2.10
2018-12-14T12:01:52.612Z,2.10
2018-12-14T12:04:26.059Z,2.00
2018-12-14T12:07:00.030Z,2.00
2018-12-14T12:09:33.735Z,2.00
2018-12-14T12:12:07.156Z,2.00
2018-12-14T12:14:42.341Z,2.00
2018-12-14T12:17:15.767Z,2.00
2018-12-14T12:19:49.205Z,1.90
2018-12-14T12:22:23.790Z,1.90
2018-12-14T12:36:35.796Z,1.90
2018-12-14T12:39:10.386Z,1.80
2018-12-14T12:41:45.189Z,1.80
2018-12-14T12:44:18.649Z,1.90
2018-12-14T12:46:57.995Z,1.80
2018-12-14T12:49:31.465Z,1.80
2018-12-14T12:52:10.077Z,1.80
2018-12-14T12:54:43.563Z,1.80
2018-12-14T13:00:34.967Z,1.80
2018-12-14T13:03:08.459Z,1.70
2018-12-14T13:05:43.908Z,1.80
2018-12-14T13:08:17.431Z,1.70
2018-12-14T13:11:07.389Z,1.70
2018-12-14T13:13:40.907Z,1.70
2018-12-14T13:16:28.314Z,1.60
2018-12-14T13:19:01.818Z,1.60
2018-12-14T13:21:37.243Z,1.60
2018-12-14T13:24:10.734Z,1.60
2018-12-14T13:26:45.163Z,1.60
2018-12-14T13:29:18.921Z,1.60
2018-12-14T13:31:52.388Z,1.60
2018-12-14T13:34:25.887Z,1.60
2018-12-14T13:36:59.361Z,1.60
2018-12-14T13:39:34.777Z,1.50
2018-12-14T13:42:08.243Z,1.50
2018-12-14T13:45:01.032Z,1.50
2018-12-14T13:47:34.522Z,1.50
2018-12-14T13:50:12.885Z,1.50
2018-12-14T13:52:46.654Z,1.50
2018-12-14T13:55:20.152Z,1.50
2018-12-14T13:57:53.616Z,1.50
2018-12-14T14:00:31.189Z,1.50
2018-12-14T14:03:04.667Z,1.50
2018-12-14T14:05:42.422Z,1.50
2018-12-14T14:14:27.140Z,1.40
2018-12-14T14:17:12.494Z,1.40
2018-12-14T14:25:33.815Z,1.30
2018-12-14T14:28:23.025Z,1.30
2018-12-14T14:51:20.223Z,1.20
2018-12-14T14:56:46.554Z,1.20
2018-12-14T14:59:19.994Z,1.20
2018-12-14T15:10:53.752Z,1.10
2018-12-14T15:22:35.533Z,1.10
2018-12-14T15:27:57.685Z,1.00
2018-12-14T15:33:18.271Z,1.00
2018-12-14T15:36:10.211Z,1.00
2018-12-14T15:41:23.114Z,1.10
2018-12-14T15:55:39.775Z,1.00
2018-12-14T16:09:06.752Z,1.00
2018-12-14T16:11:40.212Z,0.90
2018-12-14T16:14:17.435Z,0.90
2018-12-14T16:16:50.896Z,0.90
2018-12-14T16:19:24.350Z,0.90
2018-12-14T16:21:58.062Z,0.90
2018-12-14T16:24:31.542Z,0.90
2018-12-14T16:27:05.014Z,0.90
2018-12-14T16:29:38.445Z,0.90
2018-12-14T16:32:11.902Z,0.90
2018-12-14T16:34:45.335Z,1.00
2018-12-14T16:46:22.621Z,0.90
2018-12-14T16:48:56.093Z,0.90
2018-12-14T16:51:29.554Z,0.90
2018-12-14T16:54:04.991Z,0.90
2018-12-14T16:56:38.447Z,1.60
2018-12-14T16:59:11.879Z,0.90
2018-12-14T17:01:45.345Z,0.80
2018-12-14T17:04:18.939Z,0.80
2018-12-14T17:06:52.399Z,0.80
2018-12-14T17:09:25.893Z,0.80
2018-12-14T17:11:59.358Z,0.80
2018-12-14T17:17:05.928Z,0.70
2018-12-14T17:19:39.355Z,0.80
2018-12-14T17:22:12.809Z,0.70
2018-12-14T17:24:46.249Z,0.70
2018-12-14T17:27:19.767Z,0.70
2018-12-14T17:29:53.426Z,0.70
2018-12-14T17:32:26.892Z,0.70
2018-12-14T17:35:00.320Z,0.70
2018-12-14T17:37:33.776Z,0.70
2018-12-14T17:40:07.827Z,0.70
2018-12-14T17:42:41.294Z,0.70
2018-12-14T17:45:16.144Z,0.70
2018-12-14T17:47:49.600Z,0.70
2018-12-14T17:50:23.042Z,0.70
2018-12-14T17:52:56.511Z,0.70
2018-12-14T17:55:29.984Z,0.70
2018-12-14T17:58:03.529Z,0.70
2018-12-14T18:00:37.041Z,0.60
2018-12-14T18:03:11.312Z,0.60
2018-12-14T18:15:02.482Z,0.60
2018-12-14T18:17:36.837Z,0.60
2018-12-14T18:20:10.454Z,0.60
2018-12-14T18:25:58.180Z,0.60
2018-12-14T18:28:31.626Z,0.60
2018-12-14T18:59:20.953Z,0.50
2018-12-14T19:01:54.666Z,0.50
2018-12-14T19:07:17.076Z,0.50
2018-12-14T19:09:50.612Z,0.50
2018-12-14T19:12:24.365Z,0.50
2018-12-14T19:14:57.828Z,0.50
2018-12-14T19:17:31.263Z,0.50
2018-12-14T19:20:04.845Z,0.50
2018-12-14T19:22:38.620Z,0.50
2018-12-14T19:25:12.733Z,0.50
2018-12-14T19:27:46.172Z,0.50
2018-12-14T19:30:19.644Z,0.60
2018-12-14T19:32:53.081Z,0.60
2018-12-14T19:35:35.812Z,0.50
2018-12-14T19:38:09.241Z,0.60
2018-12-14T19:43:23.666Z,0.60
2018-12-14T19:45:57.129Z,0.60
2018-12-14T19:48:37.521Z,0.60
2018-12-14T19:51:11.672Z,0.60
2018-12-14T19:53:45.111Z,0.50
2018-12-14T19:59:20.080Z,0.60
2018-12-14T20:01:53.517Z,0.60
2018-12-14T20:04:26.987Z,0.60
2018-12-14T20:07:00.440Z,0.60
2018-12-14T20:09:33.891Z,0.60
2018-12-14T20:12:07.325Z,0.60
2018-12-14T20:14:40.800Z,0.60
2018-12-14T20:17:14.232Z,0.60
2018-12-14T20:19:47.695Z,0.60
2018-12-14T20:22:21.129Z,0.60
2018-12-14T20:25:09.599Z,0.60
2018-12-14T20:27:43.036Z,0.60
2018-12-14T20:30:17.115Z,0.60
2018-12-14T20:32:50.577Z,0.60
2018-12-14T20:35:24.031Z,0.60
2018-12-14T20:37:57.648Z,0.60
2018-12-14T20:40:31.096Z,0.60
2018-12-14T20:43:04.527Z,0.60
2018-12-14T20:45:37.984Z,0.60
2018-12-14T20:48:12.214Z,0.60
2018-12-14T20:50:45.913Z,0.60
2018-12-14T20:53:20.164Z,0.60
2018-12-14T20:55:54.475Z,0.70
2018-12-14T20:58:28.168Z,0.70
2018-12-14T21:01:02.434Z,0.60
2018-12-14T21:03:35.868Z,0.60
2018-12-14T21:08:49.574Z,0.50
2018-12-14T21:11:23.032Z,0.60
2018-12-14T21:13:56.468Z,0.60
2018-12-14T21:46:54.389Z,0.60
2018-12-14T21:52:31.574Z,0.60
2018-12-14T21:55:05.750Z,0.60
2018-12-14T21:57:39.694Z,0.60
2018-12-14T22:00:13.510Z,0.60
2018-12-14T22:05:29.435Z,0.70
2018-12-14T22:14:21.239Z,0.60
2018-12-14T22:36:23.312Z,0.60
2018-12-14T22:41:42.928Z,0.70
2018-12-14T22:49:36.587Z,0.60
2018-12-14T23:08:47.927Z,0.60
2018-12-14T23:11:21.713Z,0.60
2018-12-14T23:13:55.557Z,0.60
2018-12-14T23:44:23.946Z,0.50
2018-12-14T23:47:00.363Z,0.50
2018-12-14T23:52:35.916Z,0.50
